RYR6MQ LIME-LGIR
Flight info
| Callsign | RYR6MQ |
|---|---|
| Flight time | N/A |
| Altitude | 37000 |
| Route | LOGDI DCT EKDIR DCT LOMED DCT LATAN DCT TRL UM601 MIL UL617 XAVIS |
| Aircraft | B738/M-SDE3FGILRWY/SB1 |
Departure
| Time | 2026-05-07 17:00 |
|---|---|
| Airport | Il Caravaggio International Airport (LIME) |
Arrival
| Time | N/A |
|---|---|
| Airport | Heraklion International Nikos Kazantzakis Airport (LGIR) |
| Time | Latitude | Longitude | Altitude | Speed | Heading |
|---|---|---|---|---|---|
| 2026-05-07 17:00 | 45.53429 | 9.52071 | 8061 ft | 252 kts | 160° |
| 2026-05-07 17:00 | 45.51803 | 9.53038 | 8484 ft | 255 kts | 158° |
| 2026-05-07 17:00 | 45.50182 | 9.54061 | 9203 ft | 255 kts | 157° |
| 2026-05-07 17:01 | 45.48555 | 9.55082 | 9891 ft | 257 kts | 158° |
| 2026-05-07 17:01 | 45.46896 | 9.56111 | 10478 ft | 263 kts | 158° |
| 2026-05-07 17:01 | 45.45213 | 9.57143 | 11247 ft | 263 kts | 159° |
| 2026-05-07 17:01 | 45.43526 | 9.58169 | 11971 ft | 266 kts | 159° |
| 2026-05-07 17:02 | 45.41807 | 9.59207 | 12663 ft | 270 kts | 160° |
| 2026-05-07 17:02 | 45.40064 | 9.60256 | 13373 ft | 274 kts | 160° |
| 2026-05-07 17:02 | 45.38298 | 9.61316 | 14039 ft | 277 kts | 160° |
| 2026-05-07 17:02 | 45.36518 | 9.62405 | 14669 ft | 281 kts | 157° |
| 2026-05-07 17:03 | 45.34760 | 9.63826 | 14917 ft | 303 kts | 150° |
| 2026-05-07 17:03 | 45.32931 | 9.65535 | 15092 ft | 326 kts | 148° |
| 2026-05-07 17:03 | 45.30991 | 9.67396 | 15252 ft | 347 kts | 148° |
| 2026-05-07 17:03 | 45.28934 | 9.69363 | 15527 ft | 363 kts | 148° |
| 2026-05-07 17:04 | 45.26813 | 9.71371 | 16094 ft | 369 kts | 148° |
| 2026-05-07 17:04 | 45.24691 | 9.73360 | 16782 ft | 372 kts | 149° |
| 2026-05-07 17:04 | 45.22522 | 9.75378 | 17480 ft | 374 kts | 149° |
| 2026-05-07 17:04 | 45.20334 | 9.77402 | 18141 ft | 378 kts | 149° |
| 2026-05-07 17:05 | 45.18116 | 9.79446 | 18710 ft | 382 kts | 149° |
| 2026-05-07 17:05 | 45.15876 | 9.81506 | 19267 ft | 386 kts | 149° |
| 2026-05-07 17:05 | 45.13612 | 9.83585 | 19814 ft | 389 kts | 150° |
| 2026-05-07 17:05 | 45.11329 | 9.85680 | 20383 ft | 393 kts | 150° |
| 2026-05-07 17:06 | 45.09027 | 9.87790 | 20935 ft | 396 kts | 150° |
| 2026-05-07 17:06 | 45.06700 | 9.89922 | 21475 ft | 400 kts | 150° |
| 2026-05-07 17:06 | 45.04352 | 9.92072 | 22008 ft | 404 kts | 150° |
| 2026-05-07 17:06 | 45.01982 | 9.94237 | 22535 ft | 407 kts | 150° |
| 2026-05-07 17:07 | 44.99586 | 9.96418 | 23069 ft | 411 kts | 152° |
| 2026-05-07 17:07 | 44.97133 | 9.98511 | 23569 ft | 414 kts | 154° |
| 2026-05-07 17:07 | 44.94633 | 10.00551 | 23971 ft | 417 kts | 154° |
| 2026-05-07 17:07 | 44.92109 | 10.02589 | 24426 ft | 419 kts | 155° |
| 2026-05-07 17:08 | 44.89577 | 10.04640 | 24869 ft | 421 kts | 155° |
| 2026-05-07 17:08 | 44.87037 | 10.06709 | 25293 ft | 424 kts | 155° |
| 2026-05-07 17:08 | 44.84480 | 10.08803 | 25697 ft | 427 kts | 155° |
| 2026-05-07 17:08 | 44.81904 | 10.10917 | 26095 ft | 429 kts | 155° |
| 2026-05-07 17:09 | 44.79314 | 10.13045 | 26495 ft | 432 kts | 155° |
| 2026-05-07 17:09 | 44.76713 | 10.15181 | 26887 ft | 435 kts | 155° |
| 2026-05-07 17:09 | 44.74094 | 10.17327 | 27277 ft | 437 kts | 155° |
| 2026-05-07 17:09 | 44.71462 | 10.19480 | 27657 ft | 439 kts | 155° |
| 2026-05-07 17:10 | 44.68867 | 10.21805 | 28023 ft | 445 kts | 151° |
| 2026-05-07 17:10 | 44.66343 | 10.24348 | 28399 ft | 449 kts | 149° |
| 2026-05-07 17:10 | 44.63830 | 10.26990 | 28719 ft | 453 kts | 149° |
| 2026-05-07 17:10 | 44.61310 | 10.29654 | 29043 ft | 456 kts | 149° |
| 2026-05-07 17:11 | 44.58761 | 10.32322 | 29440 ft | 458 kts | 150° |
| 2026-05-07 17:11 | 44.56196 | 10.34975 | 29757 ft | 460 kts | 150° |
| 2026-05-07 17:11 | 44.53607 | 10.37622 | 30063 ft | 462 kts | 151° |
| 2026-05-07 17:11 | 44.50995 | 10.40275 | 30331 ft | 465 kts | 151° |
| 2026-05-07 17:12 | 44.48369 | 10.42932 | 30615 ft | 467 kts | 151° |
| 2026-05-07 17:12 | 44.45736 | 10.45592 | 30912 ft | 468 kts | 151° |
| 2026-05-07 17:12 | 44.43091 | 10.48263 | 31196 ft | 469 kts | 151° |
| 2026-05-07 17:12 | 44.40439 | 10.50938 | 31465 ft | 471 kts | 151° |
| 2026-05-07 17:13 | 44.37778 | 10.53620 | 31727 ft | 472 kts | 151° |
| 2026-05-07 17:13 | 44.35153 | 10.56266 | 32095 ft | 471 kts | 151° |
| 2026-05-07 17:13 | 44.32503 | 10.58934 | 32495 ft | 468 kts | 151° |
| 2026-05-07 17:13 | 44.29864 | 10.61587 | 32834 ft | 467 kts | 152° |
| 2026-05-07 17:14 | 44.27226 | 10.64235 | 33209 ft | 467 kts | 152° |
| 2026-05-07 17:14 | 44.24595 | 10.66874 | 33578 ft | 465 kts | 152° |
| 2026-05-07 17:14 | 44.21975 | 10.69505 | 33955 ft | 464 kts | 150° |
| 2026-05-07 17:14 | 44.19498 | 10.72443 | 34229 ft | 472 kts | 141° |
| 2026-05-07 17:15 | 44.17318 | 10.75904 | 34474 ft | 476 kts | 136° |
| 2026-05-07 17:15 | 44.15223 | 10.79472 | 34701 ft | 477 kts | 135° |
| 2026-05-07 17:15 | 44.13130 | 10.83058 | 34938 ft | 477 kts | 135° |
| 2026-05-07 17:15 | 44.11022 | 10.86624 | 35188 ft | 476 kts | 136° |
| 2026-05-07 17:16 | 44.08906 | 10.90153 | 35368 ft | 474 kts | 136° |
| 2026-05-07 17:16 | 44.06780 | 10.93663 | 35565 ft | 475 kts | 137° |
| 2026-05-07 17:16 | 44.04650 | 10.97164 | 35769 ft | 475 kts | 137° |
| 2026-05-07 17:16 | 44.02526 | 11.00670 | 36025 ft | 474 kts | 135° |
| 2026-05-07 17:17 | 44.00500 | 11.04299 | 36256 ft | 476 kts | 133° |
| 2026-05-07 17:17 | 43.98554 | 11.08023 | 36456 ft | 477 kts | 131° |
| 2026-05-07 17:17 | 43.96640 | 11.11790 | 36586 ft | 478 kts | 131° |
| 2026-05-07 17:17 | 43.94729 | 11.15575 | 36803 ft | 478 kts | 131° |
| 2026-05-07 17:18 | 43.92819 | 11.19339 | 36997 ft | 478 kts | 131° |
| 2026-05-07 17:18 | 43.90883 | 11.23120 | 36954 ft | 483 kts | 131° |
| 2026-05-07 17:18 | 43.86929 | 11.30747 | 36981 ft | 491 kts | 132° |
| 2026-05-07 17:19 | 43.82892 | 11.38474 | 36981 ft | 498 kts | 132° |
| 2026-05-07 17:19 | 43.78800 | 11.46282 | 36984 ft | 504 kts | 132° |
| 2026-05-07 17:20 | 43.74670 | 11.54148 | 36979 ft | 505 kts | 132° |
| 2026-05-07 17:20 | 43.70572 | 11.61945 | 36969 ft | 498 kts | 132° |
| 2026-05-07 17:21 | 43.66512 | 11.69642 | 36954 ft | 494 kts | 132° |
| 2026-05-07 17:21 | 43.62459 | 11.77297 | 36980 ft | 493 kts | 133° |
| 2026-05-07 17:22 | 43.58411 | 11.84921 | 36979 ft | 493 kts | 133° |
| 2026-05-07 17:22 | 43.54343 | 11.92561 | 36986 ft | 495 kts | 133° |
| 2026-05-07 17:23 | 43.50253 | 12.00226 | 36970 ft | 497 kts | 133° |
| 2026-05-07 17:23 | 43.46147 | 12.07903 | 36982 ft | 498 kts | 133° |
| 2026-05-07 17:24 | 43.42067 | 12.15636 | 36981 ft | 500 kts | 133° |
| 2026-05-07 17:24 | 43.37923 | 12.23328 | 36992 ft | 501 kts | 133° |
| 2026-05-07 17:25 | 43.33746 | 12.31003 | 36982 ft | 502 kts | 133° |
| 2026-05-07 17:25 | 43.29567 | 12.38701 | 36967 ft | 504 kts | 133° |
| 2026-05-07 17:26 | 43.25410 | 12.46369 | 36954 ft | 504 kts | 133° |
| 2026-05-07 17:26 | 43.21220 | 12.54089 | 36948 ft | 505 kts | 133° |
| 2026-05-07 17:27 | 43.17028 | 12.61788 | 36973 ft | 503 kts | 133° |
| 2026-05-07 17:27 | 43.12831 | 12.69469 | 36974 ft | 504 kts | 134° |
| 2026-05-07 17:28 | 43.08631 | 12.77135 | 36968 ft | 503 kts | 134° |
| 2026-05-07 17:28 | 43.04428 | 12.84791 | 36988 ft | 502 kts | 134° |
| 2026-05-07 17:29 | 43.00220 | 12.92438 | 37000 ft | 504 kts | 134° |
| 2026-05-07 17:29 | 42.95996 | 13.00094 | 36992 ft | 505 kts | 134° |
| 2026-05-07 17:30 | 42.91757 | 13.07758 | 36984 ft | 506 kts | 134° |
| 2026-05-07 17:30 | 42.87515 | 13.15413 | 36924 ft | 504 kts | 134° |
| 2026-05-07 17:31 | 42.83303 | 13.23006 | 37016 ft | 502 kts | 135° |
| 2026-05-07 17:31 | 42.79052 | 13.30609 | 36989 ft | 506 kts | 135° |
| 2026-05-07 17:32 | 42.74779 | 13.38246 | 36988 ft | 507 kts | 135° |
| 2026-05-07 17:32 | 42.71289 | 13.44480 | 36985 ft | 505 kts | 135° |
| 2026-05-07 17:33 | 42.66324 | 13.53327 | 37006 ft | 503 kts | 135° |
| 2026-05-07 17:33 | 42.62099 | 13.60827 | 36999 ft | 503 kts | 135° |
| 2026-05-07 17:34 | 42.57838 | 13.68371 | 37005 ft | 504 kts | 135° |
| 2026-05-07 17:34 | 42.53561 | 13.75923 | 37012 ft | 505 kts | 135° |
| 2026-05-07 17:35 | 42.49274 | 13.83478 | 37015 ft | 506 kts | 135° |
| 2026-05-07 17:35 | 42.44968 | 13.91045 | 36993 ft | 508 kts | 135° |
| 2026-05-07 17:36 | 42.40651 | 13.98615 | 36996 ft | 509 kts | 135° |
| 2026-05-07 17:36 | 42.36320 | 14.06189 | 37016 ft | 510 kts | 135° |
| 2026-05-07 17:37 | 42.31973 | 14.13774 | 36993 ft | 511 kts | 136° |
| 2026-05-07 17:37 | 42.27613 | 14.21359 | 37002 ft | 512 kts | 136° |
| 2026-05-07 17:38 | 42.23238 | 14.28951 | 36994 ft | 513 kts | 136° |
| 2026-05-07 17:38 | 42.18852 | 14.36544 | 37013 ft | 513 kts | 136° |
| 2026-05-07 17:39 | 42.14451 | 14.44142 | 36998 ft | 515 kts | 136° |
| 2026-05-07 17:39 | 42.10042 | 14.51739 | 37005 ft | 515 kts | 136° |
| 2026-05-07 17:40 | 42.05628 | 14.59325 | 36994 ft | 515 kts | 137° |
| 2026-05-07 17:40 | 42.01207 | 14.66901 | 36994 ft | 514 kts | 137° |
| 2026-05-07 17:41 | 41.96788 | 14.74454 | 36997 ft | 514 kts | 137° |
| 2026-05-07 17:41 | 41.92369 | 14.81989 | 36998 ft | 514 kts | 137° |
| 2026-05-07 17:42 | 41.87942 | 14.89518 | 36998 ft | 514 kts | 137° |
| 2026-05-07 17:42 | 41.83509 | 14.97041 | 36981 ft | 514 kts | 137° |
| 2026-05-07 17:43 | 41.79099 | 15.04504 | 36991 ft | 515 kts | 137° |
| 2026-05-07 17:43 | 41.74642 | 15.12027 | 36994 ft | 516 kts | 138° |
| 2026-05-07 17:44 | 41.70173 | 15.19554 | 37001 ft | 516 kts | 138° |
| 2026-05-07 17:44 | 41.65697 | 15.27074 | 36982 ft | 517 kts | 138° |
| 2026-05-07 17:45 | 41.61206 | 15.34600 | 36982 ft | 518 kts | 138° |
| 2026-05-07 17:45 | 41.56694 | 15.42142 | 36949 ft | 520 kts | 139° |
| 2026-05-07 17:46 | 41.52935 | 15.48411 | 36972 ft | 521 kts | 139° |
| 2026-05-07 17:46 | 41.48397 | 15.55962 | 36974 ft | 522 kts | 139° |
| 2026-05-07 17:47 | 41.43839 | 15.63528 | 36968 ft | 523 kts | 139° |
| 2026-05-07 17:47 | 41.39269 | 15.71095 | 36969 ft | 525 kts | 139° |
| 2026-05-07 17:48 | 41.34683 | 15.78667 | 36977 ft | 526 kts | 139° |
| 2026-05-07 17:48 | 41.30083 | 15.86245 | 36951 ft | 527 kts | 139° |
| 2026-05-07 17:49 | 41.25473 | 15.93824 | 36980 ft | 527 kts | 140° |
| 2026-05-07 17:49 | 41.20854 | 16.01397 | 36960 ft | 528 kts | 140° |
| 2026-05-07 17:50 | 41.16222 | 16.08969 | 36997 ft | 529 kts | 140° |
| 2026-05-07 17:50 | 41.11574 | 16.16551 | 36995 ft | 530 kts | 140° |
| 2026-05-07 17:51 | 41.06941 | 16.24090 | 37007 ft | 531 kts | 140° |
| 2026-05-07 17:51 | 41.02242 | 16.31718 | 36978 ft | 531 kts | 140° |
| 2026-05-07 17:52 | 40.97606 | 16.39228 | 37012 ft | 530 kts | 139° |
| 2026-05-07 17:52 | 40.92931 | 16.46778 | 37022 ft | 531 kts | 139° |
| 2026-05-07 17:53 | 40.88243 | 16.54329 | 37042 ft | 531 kts | 139° |
| 2026-05-07 17:53 | 40.83547 | 16.61874 | 37017 ft | 532 kts | 139° |
| 2026-05-07 17:54 | 40.78842 | 16.69419 | 37016 ft | 532 kts | 139° |
| 2026-05-07 17:54 | 40.74128 | 16.76959 | 36983 ft | 532 kts | 139° |
| 2026-05-07 17:55 | 40.69408 | 16.84489 | 37001 ft | 532 kts | 139° |
| 2026-05-07 17:55 | 40.64691 | 16.91998 | 37023 ft | 532 kts | 139° |
| 2026-05-07 17:56 | 40.59964 | 16.99502 | 37019 ft | 533 kts | 139° |
| 2026-05-07 17:56 | 40.55228 | 17.07001 | 37002 ft | 533 kts | 139° |
| 2026-05-07 17:57 | 40.51286 | 17.13230 | 37018 ft | 533 kts | 139° |
| 2026-05-07 17:57 | 40.45737 | 17.21976 | 37005 ft | 533 kts | 139° |
| 2026-05-07 17:58 | 40.40975 | 17.29463 | 37014 ft | 534 kts | 139° |
| 2026-05-07 17:58 | 40.36206 | 17.36943 | 37027 ft | 535 kts | 139° |
| 2026-05-07 17:59 | 40.31462 | 17.44364 | 37008 ft | 535 kts | 139° |
| 2026-05-07 17:59 | 40.26675 | 17.51836 | 37016 ft | 535 kts | 139° |
| 2026-05-07 18:00 | 40.21884 | 17.59295 | 37023 ft | 535 kts | 139° |
| 2026-05-07 18:00 | 40.17087 | 17.66747 | 37010 ft | 535 kts | 139° |
| 2026-05-07 18:01 | 40.12290 | 17.74182 | 37013 ft | 535 kts | 139° |
| 2026-05-07 18:01 | 40.07495 | 17.81594 | 37014 ft | 534 kts | 138° |
| 2026-05-07 18:02 | 40.00294 | 17.92693 | 37020 ft | 534 kts | 138° |
| 2026-05-07 18:03 | 39.95494 | 18.00068 | 37018 ft | 533 kts | 138° |
| 2026-05-07 18:03 | 39.90688 | 18.07434 | 37007 ft | 533 kts | 137° |
| 2026-05-07 18:04 | 39.85885 | 18.14780 | 37019 ft | 532 kts | 137° |
| 2026-05-07 18:04 | 39.81084 | 18.22106 | 37022 ft | 532 kts | 138° |
| 2026-05-07 18:05 | 39.76279 | 18.29420 | 37020 ft | 532 kts | 138° |
| 2026-05-07 18:05 | 39.71473 | 18.36719 | 37023 ft | 531 kts | 138° |
| 2026-05-07 18:06 | 39.66663 | 18.44005 | 37004 ft | 531 kts | 137° |
| 2026-05-07 18:06 | 39.61848 | 18.51282 | 37006 ft | 531 kts | 137° |
| 2026-05-07 18:07 | 39.57033 | 18.58544 | 37023 ft | 531 kts | 137° |
| 2026-05-07 18:07 | 39.52242 | 18.65752 | 37026 ft | 532 kts | 137° |
| 2026-05-07 18:08 | 39.47409 | 18.73008 | 37030 ft | 532 kts | 137° |
| 2026-05-07 18:08 | 39.42573 | 18.80249 | 37009 ft | 532 kts | 137° |
| 2026-05-07 18:09 | 39.37728 | 18.87490 | 37034 ft | 533 kts | 137° |
| 2026-05-07 18:09 | 39.32873 | 18.94730 | 37018 ft | 533 kts | 137° |
| 2026-05-07 18:10 | 39.28077 | 19.02059 | 37029 ft | 537 kts | 132° |
| 2026-05-07 18:10 | 39.23760 | 19.09949 | 37039 ft | 540 kts | 129° |
| 2026-05-07 18:11 | 39.19561 | 19.17982 | 37031 ft | 540 kts | 128° |
| 2026-05-07 18:11 | 39.15323 | 19.25970 | 37050 ft | 540 kts | 129° |
| 2026-05-07 18:12 | 39.11031 | 19.33914 | 37049 ft | 540 kts | 129° |
| 2026-05-07 18:12 | 39.06719 | 19.41834 | 37049 ft | 540 kts | 129° |
| 2026-05-07 18:13 | 39.02401 | 19.49747 | 37042 ft | 540 kts | 129° |
| 2026-05-07 18:13 | 38.98080 | 19.57656 | 37053 ft | 541 kts | 129° |
| 2026-05-07 18:14 | 38.93754 | 19.65559 | 37048 ft | 541 kts | 129° |
| 2026-05-07 18:14 | 38.89448 | 19.73406 | 37056 ft | 541 kts | 129° |
| 2026-05-07 18:15 | 38.85111 | 19.81289 | 37046 ft | 541 kts | 129° |
| 2026-05-07 18:15 | 38.80769 | 19.89163 | 37061 ft | 541 kts | 129° |
| 2026-05-07 18:16 | 38.76419 | 19.97032 | 37067 ft | 541 kts | 129° |
| 2026-05-07 18:16 | 38.72064 | 20.04893 | 37059 ft | 541 kts | 129° |
| 2026-05-07 18:17 | 38.67707 | 20.12736 | 37065 ft | 540 kts | 129° |
| 2026-05-07 18:17 | 38.63348 | 20.20565 | 37059 ft | 540 kts | 128° |
| 2026-05-07 18:18 | 38.58990 | 20.28372 | 37062 ft | 540 kts | 128° |
| 2026-05-07 18:18 | 38.54624 | 20.36173 | 37079 ft | 540 kts | 129° |
| 2026-05-07 18:19 | 38.50252 | 20.43968 | 37062 ft | 540 kts | 129° |
| 2026-05-07 18:19 | 38.45878 | 20.51748 | 37077 ft | 540 kts | 128° |
| 2026-05-07 18:20 | 38.41491 | 20.59531 | 37084 ft | 541 kts | 128° |
| 2026-05-07 18:20 | 38.37094 | 20.67314 | 37069 ft | 540 kts | 128° |
| 2026-05-07 18:21 | 38.32701 | 20.75076 | 37079 ft | 539 kts | 128° |
| 2026-05-07 18:21 | 38.28304 | 20.82821 | 37076 ft | 540 kts | 128° |
| 2026-05-07 18:22 | 38.23901 | 20.90559 | 37094 ft | 540 kts | 128° |
| 2026-05-07 18:22 | 38.19493 | 20.98287 | 37088 ft | 540 kts | 128° |
| 2026-05-07 18:23 | 38.15074 | 21.06019 | 37091 ft | 540 kts | 128° |
| 2026-05-07 18:23 | 38.10653 | 21.13735 | 37097 ft | 540 kts | 128° |
| 2026-05-07 18:24 | 38.06221 | 21.21451 | 37071 ft | 541 kts | 128° |
| 2026-05-07 18:24 | 38.01792 | 21.29145 | 37097 ft | 540 kts | 128° |
| 2026-05-07 18:25 | 37.97355 | 21.36833 | 37106 ft | 540 kts | 128° |
| 2026-05-07 18:25 | 37.92912 | 21.44515 | 37102 ft | 540 kts | 128° |
| 2026-05-07 18:26 | 37.88493 | 21.52137 | 37101 ft | 540 kts | 128° |
| 2026-05-07 18:26 | 37.84042 | 21.59798 | 37105 ft | 540 kts | 128° |
| 2026-05-07 18:27 | 37.79584 | 21.67452 | 37102 ft | 540 kts | 128° |
| 2026-05-07 18:27 | 37.75123 | 21.75095 | 37107 ft | 540 kts | 128° |
| 2026-05-07 18:28 | 37.70656 | 21.82728 | 37109 ft | 540 kts | 128° |
| 2026-05-07 18:28 | 37.66183 | 21.90355 | 37113 ft | 540 kts | 128° |
| 2026-05-07 18:29 | 37.61709 | 21.97966 | 37119 ft | 540 kts | 128° |
| 2026-05-07 18:29 | 37.57229 | 22.05571 | 37128 ft | 540 kts | 128° |
| 2026-05-07 18:30 | 37.52742 | 22.13170 | 37130 ft | 540 kts | 128° |
| 2026-05-07 18:30 | 37.48254 | 22.20754 | 37132 ft | 540 kts | 128° |
| 2026-05-07 18:31 | 37.43754 | 22.28336 | 37128 ft | 540 kts | 128° |
| 2026-05-07 18:31 | 37.39667 | 22.36255 | 37109 ft | 540 kts | 115° |
| 2026-05-07 18:32 | 37.37028 | 22.45050 | 37154 ft | 538 kts | 107° |
| 2026-05-07 18:32 | 37.34556 | 22.53930 | 37148 ft | 538 kts | 108° |
| 2026-05-07 18:33 | 37.32023 | 22.62766 | 37142 ft | 538 kts | 108° |
| 2026-05-07 18:33 | 37.29447 | 22.71542 | 37141 ft | 539 kts | 108° |
| 2026-05-07 18:34 | 37.26847 | 22.80378 | 37128 ft | 540 kts | 108° |
| 2026-05-07 18:34 | 37.24246 | 22.89203 | 37140 ft | 539 kts | 108° |
| 2026-05-07 18:35 | 37.21638 | 22.98029 | 37121 ft | 540 kts | 108° |
| 2026-05-07 18:35 | 37.19447 | 23.05419 | 37123 ft | 540 kts | 108° |
| 2026-05-07 18:36 | 37.16822 | 23.14249 | 37125 ft | 541 kts | 108° |
| 2026-05-07 18:36 | 37.14188 | 23.23083 | 37121 ft | 541 kts | 108° |
| 2026-05-07 18:37 | 37.11562 | 23.31861 | 37119 ft | 542 kts | 108° |
| 2026-05-07 18:37 | 37.08902 | 23.40699 | 37123 ft | 542 kts | 108° |
| 2026-05-07 18:38 | 37.06234 | 23.49538 | 37119 ft | 543 kts | 108° |
| 2026-05-07 18:38 | 37.03558 | 23.58381 | 37126 ft | 543 kts | 108° |
| 2026-05-07 18:39 | 37.00863 | 23.67264 | 36554 ft | 549 kts | 108° |
| 2026-05-07 18:39 | 36.99510 | 23.71708 | 36189 ft | 544 kts | 108° |
| 2026-05-07 18:39 | 36.98169 | 23.76106 | 35780 ft | 539 kts | 108° |
| 2026-05-07 18:39 | 36.96837 | 23.80468 | 35353 ft | 535 kts | 108° |
| 2026-05-07 18:40 | 36.95513 | 23.84799 | 34939 ft | 532 kts | 109° |
| 2026-05-07 18:40 | 36.94193 | 23.89115 | 34523 ft | 530 kts | 109° |
| 2026-05-07 18:40 | 36.92877 | 23.93413 | 34087 ft | 529 kts | 109° |
| 2026-05-07 18:40 | 36.91561 | 23.97702 | 33628 ft | 527 kts | 109° |
| 2026-05-07 18:41 | 36.90249 | 24.01967 | 33202 ft | 524 kts | 109° |
| 2026-05-07 18:41 | 36.88943 | 24.06207 | 32798 ft | 521 kts | 109° |
| 2026-05-07 18:41 | 36.87644 | 24.10419 | 32392 ft | 518 kts | 109° |
| 2026-05-07 18:41 | 36.86353 | 24.14601 | 32002 ft | 514 kts | 109° |
| 2026-05-07 18:42 | 36.85070 | 24.18751 | 31603 ft | 511 kts | 109° |
| 2026-05-07 18:42 | 36.83791 | 24.22886 | 31228 ft | 515 kts | 109° |
| 2026-05-07 18:42 | 36.82479 | 24.27132 | 30843 ft | 532 kts | 109° |
| 2026-05-07 18:42 | 36.81124 | 24.31506 | 30396 ft | 545 kts | 109° |
| 2026-05-07 18:43 | 36.79756 | 24.35906 | 29916 ft | 542 kts | 109° |
| 2026-05-07 18:43 | 36.78399 | 24.40257 | 29437 ft | 535 kts | 109° |
| 2026-05-07 18:43 | 36.77057 | 24.44551 | 29000 ft | 527 kts | 110° |
| 2026-05-07 18:43 | 36.75485 | 24.48658 | 28553 ft | 523 kts | 120° |
| 2026-05-07 18:44 | 36.73459 | 24.52381 | 28169 ft | 516 kts | 129° |
| 2026-05-07 18:44 | 36.71112 | 24.55709 | 27925 ft | 510 kts | 136° |
| 2026-05-07 18:44 | 36.68435 | 24.58614 | 27523 ft | 510 kts | 143° |
| 2026-05-07 18:44 | 36.65676 | 24.61366 | 27088 ft | 506 kts | 143° |
| 2026-05-07 18:45 | 36.62943 | 24.64079 | 26653 ft | 499 kts | 143° |
| 2026-05-07 18:45 | 36.60253 | 24.66761 | 26225 ft | 493 kts | 143° |
| 2026-05-07 18:45 | 36.57603 | 24.69422 | 25805 ft | 487 kts | 142° |
| 2026-05-07 18:45 | 36.54990 | 24.72061 | 25389 ft | 481 kts | 142° |
| 2026-05-07 18:46 | 36.52405 | 24.74681 | 24975 ft | 476 kts | 142° |
| 2026-05-07 18:46 | 36.49855 | 24.77270 | 24565 ft | 471 kts | 142° |
| 2026-05-07 18:46 | 36.47327 | 24.79834 | 24159 ft | 466 kts | 142° |
| 2026-05-07 18:46 | 36.44829 | 24.82368 | 23745 ft | 462 kts | 142° |
| 2026-05-07 18:47 | 36.42349 | 24.84879 | 23247 ft | 457 kts | 141° |
| 2026-05-07 18:47 | 36.39895 | 24.87362 | 22811 ft | 453 kts | 142° |
| 2026-05-07 18:47 | 36.37467 | 24.89816 | 22410 ft | 448 kts | 142° |
| 2026-05-07 18:47 | 36.35062 | 24.92245 | 22003 ft | 444 kts | 142° |
| 2026-05-07 18:48 | 36.32674 | 24.94653 | 21600 ft | 441 kts | 142° |
| 2026-05-07 18:48 | 36.30304 | 24.97041 | 21206 ft | 438 kts | 142° |
| 2026-05-07 18:48 | 36.27945 | 24.99417 | 20813 ft | 436 kts | 142° |
| 2026-05-07 18:48 | 36.25599 | 25.01777 | 20423 ft | 433 kts | 142° |
| 2026-05-07 18:49 | 36.23295 | 25.04094 | 20039 ft | 431 kts | 142° |
| 2026-05-07 18:49 | 36.20972 | 25.06428 | 19650 ft | 429 kts | 142° |
| 2026-05-07 18:49 | 36.18659 | 25.08749 | 19262 ft | 427 kts | 142° |
| 2026-05-07 18:49 | 36.16356 | 25.11060 | 18874 ft | 425 kts | 142° |
| 2026-05-07 18:50 | 36.14063 | 25.13358 | 18485 ft | 423 kts | 143° |
| 2026-05-07 18:50 | 36.11784 | 25.15640 | 18036 ft | 421 kts | 142° |
| 2026-05-07 18:50 | 36.09519 | 25.17907 | 17623 ft | 417 kts | 142° |
| 2026-05-07 18:50 | 36.07270 | 25.20156 | 17228 ft | 414 kts | 142° |
| 2026-05-07 18:51 | 36.05047 | 25.22377 | 16851 ft | 410 kts | 142° |
| 2026-05-07 18:51 | 36.02837 | 25.24585 | 16473 ft | 406 kts | 142° |
| 2026-05-07 18:51 | 36.00648 | 25.26769 | 16103 ft | 403 kts | 142° |
| 2026-05-07 18:51 | 35.98476 | 25.28935 | 15730 ft | 400 kts | 142° |
| 2026-05-07 18:52 | 35.96320 | 25.31085 | 15359 ft | 397 kts | 142° |
| 2026-05-07 18:52 | 35.94176 | 25.33219 | 14995 ft | 395 kts | 142° |
| 2026-05-07 18:52 | 35.92043 | 25.35340 | 14629 ft | 393 kts | 142° |
| 2026-05-07 18:52 | 35.89918 | 25.37451 | 14223 ft | 392 kts | 141° |
| 2026-05-07 18:53 | 35.87795 | 25.39558 | 13813 ft | 391 kts | 141° |
| 2026-05-07 18:53 | 35.85682 | 25.41653 | 13399 ft | 388 kts | 141° |
| 2026-05-07 18:53 | 35.83584 | 25.43733 | 12988 ft | 385 kts | 141° |
| 2026-05-07 18:53 | 35.81507 | 25.45791 | 12603 ft | 382 kts | 141° |
| 2026-05-07 18:54 | 35.79447 | 25.47831 | 12228 ft | 378 kts | 141° |
| 2026-05-07 18:54 | 35.77404 | 25.49854 | 11851 ft | 375 kts | 141° |
| 2026-05-07 18:54 | 35.75377 | 25.51859 | 11476 ft | 372 kts | 141° |
| 2026-05-07 18:54 | 35.73365 | 25.53849 | 11109 ft | 370 kts | 141° |
| 2026-05-07 18:55 | 35.71395 | 25.55795 | 10750 ft | 367 kts | 141° |
| 2026-05-07 18:55 | 35.69382 | 25.57781 | 10381 ft | 364 kts | 141° |
| 2026-05-07 18:55 | 35.67450 | 25.59687 | 10180 ft | 357 kts | 141° |
| 2026-05-07 18:55 | 35.65487 | 25.61624 | 9792 ft | 356 kts | 141° |
| 2026-05-07 18:56 | 35.63583 | 25.63501 | 9419 ft | 355 kts | 141° |
| 2026-05-07 18:56 | 35.61645 | 25.65361 | 9047 ft | 353 kts | 147° |
| 2026-05-07 18:56 | 35.59371 | 25.66416 | 8658 ft | 351 kts | 175° |